Terminal Aerodrome Forecast
Issued by NWS

Home | Current Version | Previous Version | Text Only | Print | Product List | Glossary Off
Versions: 1 2 3 4 5 6 7 8 9 10 11 12 13 14 15 16 17 18 19 20 21 22 23 24 25 26 27 28 29 30

506
FTUS43 KLOT 051145 AAA
TAFDPA
TAF AMD
KDPA 051145Z 0512/0612 25009KT 6SM BR OVC006
     FM051300 23007KT 2SM BR OVC004
      TEMPO 0513/0516 1/2SM FZFG VV003
     FM051600 20010KT 2SM BR OVC003
     FM051900 19010KT 5SM BR OVC004
     FM052300 16008KT 4SM BR OVC006
     FM060200 15006KT 6SM BR OVC005=

USA.gov is the U.S. government's official web portal to all federal, state and local government web resources and services.